sensor_id;sensor_type;location;lat;lon;timestamp;pressure;altitude;pressure_sealevel;temperature
49785;BMP280;35679;38.732;-121.358;2023-06-10T00:01:14;100829.50;;;25.66
49785;BMP280;35679;38.732;-121.358;2023-06-10T00:04:04;100838.97;;;25.69
49785;BMP280;35679;38.732;-121.358;2023-06-10T00:06:53;100838.69;;;25.70
49785;BMP280;35679;38.732;-121.358;2023-06-10T00:09:43;100828.72;;;25.71
49785;BMP280;35679;38.732;-121.358;2023-06-10T00:12:32;100830.38;;;25.72
49785;BMP280;35679;38.732;-121.358;2023-06-10T00:15:25;100835.78;;;25.72
49785;BMP280;35679;38.732;-121.358;2023-06-10T00:18:15;100834.91;;;25.71
49785;BMP280;35679;38.732;-121.358;2023-06-10T00:21:05;100837.38;;;25.73
49785;BMP280;35679;38.732;-121.358;2023-06-10T00:23:54;100839.03;;;25.74
49785;BMP280;35679;38.732;-121.358;2023-06-10T00:26:44;100829.84;;;25.75
49785;BMP280;35679;38.732;-121.358;2023-06-10T00:29:33;100832.28;;;25.76
49785;BMP280;35679;38.732;-121.358;2023-06-10T00:32:23;100824.16;;;25.76
49785;BMP280;35679;38.732;-121.358;2023-06-10T00:35:12;100820.66;;;25.76
49785;BMP280;35679;38.732;-121.358;2023-06-10T00:38:02;100824.69;;;25.73
49785;BMP280;35679;38.732;-121.358;2023-06-10T00:40:51;100816.63;;;25.78
49785;BMP280;35679;38.732;-121.358;2023-06-10T00:43:40;100815.53;;;25.79
49785;BMP280;35679;38.732;-121.358;2023-06-10T00:46:30;100818.47;;;25.78
49785;BMP280;35679;38.732;-121.358;2023-06-10T00:49:21;100813.09;;;25.78
49785;BMP280;35679;38.732;-121.358;2023-06-10T00:52:11;100811.47;;;25.77
49785;BMP280;35679;38.732;-121.358;2023-06-10T00:55:01;100808.22;;;25.80
49785;BMP280;35679;38.732;-121.358;2023-06-10T00:57:52;100799.06;;;25.81
49785;BMP280;35679;38.732;-121.358;2023-06-10T01:00:42;100796.09;;;25.82
49785;BMP280;35679;38.732;-121.358;2023-06-10T01:03:34;100787.97;;;25.82
49785;BMP280;35679;38.732;-121.358;2023-06-10T01:09:49;100792.84;;;25.85
49785;BMP280;35679;38.732;-121.358;2023-06-10T01:15:38;100786.91;;;25.83
49785;BMP280;35679;38.732;-121.358;2023-06-10T01:18:31;100785.81;;;25.84
49785;BMP280;35679;38.732;-121.358;2023-06-10T01:21:21;100785.81;;;25.84
49785;BMP280;35679;38.732;-121.358;2023-06-10T01:24:13;100788.53;;;25.84
49785;BMP280;35679;38.732;-121.358;2023-06-10T01:27:06;100788.53;;;25.84
49785;BMP280;35679;38.732;-121.358;2023-06-10T01:30:02;100786.63;;;25.84
49785;BMP280;35679;38.732;-121.358;2023-06-10T01:32:54;100790.69;;;25.87
49785;BMP280;35679;38.732;-121.358;2023-06-10T01:35:44;100789.63;;;25.88
49785;BMP280;35679;38.732;-121.358;2023-06-10T01:38:40;100788.81;;;25.87
49785;BMP280;35679;38.732;-121.358;2023-06-10T01:41:31;100785.28;;;25.87
49785;BMP280;35679;38.732;-121.358;2023-06-10T01:44:22;100785.84;;;25.89
49785;BMP280;35679;38.732;-121.358;2023-06-10T01:47:12;100782.06;;;25.90
49785;BMP280;35679;38.732;-121.358;2023-06-10T01:50:01;100780.44;;;25.89
49785;BMP280;35679;38.732;-121.358;2023-06-10T01:52:51;100785.84;;;25.89
49785;BMP280;35679;38.732;-121.358;2023-06-10T01:55:40;100782.63;;;25.97
49785;BMP280;35679;38.732;-121.358;2023-06-10T01:58:30;100783.50;;;26.22
49785;BMP280;35679;38.732;-121.358;2023-06-10T02:01:20;100788.69;;;26.39
49785;BMP280;35679;38.732;-121.358;2023-06-10T02:04:09;100787.66;;;26.49
49785;BMP280;35679;38.732;-121.358;2023-06-10T02:06:59;100784.41;;;26.57
49785;BMP280;35679;38.732;-121.358;2023-06-10T02:09:53;100786.03;;;26.68
49785;BMP280;35679;38.732;-121.358;2023-06-10T02:12:42;100781.44;;;26.74
49785;BMP280;35679;38.732;-121.358;2023-06-10T02:15:31;100783.59;;;26.82
49785;BMP280;35679;38.732;-121.358;2023-06-10T02:18:23;100783.34;;;26.83
49785;BMP280;35679;38.732;-121.358;2023-06-10T02:21:13;100778.44;;;26.90
49785;BMP280;35679;38.732;-121.358;2023-06-10T02:24:02;100788.47;;;26.95
49785;BMP280;35679;38.732;-121.358;2023-06-10T02:26:52;100783.06;;;26.95
49785;BMP280;35679;38.732;-121.358;2023-06-10T02:29:42;100780.66;;;26.98
49785;BMP280;35679;38.732;-121.358;2023-06-10T02:32:32;100785.50;;;27.01
49785;BMP280;35679;38.732;-121.358;2023-06-10T02:35:22;100787.41;;;27.06
49785;BMP280;35679;38.732;-121.358;2023-06-10T02:38:13;100792.00;;;27.05
49785;BMP280;35679;38.732;-121.358;2023-06-10T02:41:03;100792.84;;;27.06
49785;BMP280;35679;38.732;-121.358;2023-06-10T02:43:52;100797.69;;;27.09
49785;BMP280;35679;38.732;-121.358;2023-06-10T02:46:42;100804.19;;;27.03
49785;BMP280;35679;38.732;-121.358;2023-06-10T02:49:32;100797.44;;;27.00
49785;BMP280;35679;38.732;-121.358;2023-06-10T02:52:22;100797.97;;;27.02
49785;BMP280;35679;38.732;-121.358;2023-06-10T02:55:12;100801.47;;;27.03
49785;BMP280;35679;38.732;-121.358;2023-06-10T02:58:07;100796.91;;;26.98
49785;BMP280;35679;38.732;-121.358;2023-06-10T03:00:57;100799.03;;;26.96
49785;BMP280;35679;38.732;-121.358;2023-06-10T03:03:53;100806.63;;;26.99
49785;BMP280;35679;38.732;-121.358;2023-06-10T03:06:45;100802.81;;;26.95
49785;BMP280;35679;38.732;-121.358;2023-06-10T03:09:41;100805.53;;;26.90
49785;BMP280;35679;38.732;-121.358;2023-06-10T03:12:34;100797.41;;;26.90
49785;BMP280;35679;38.732;-121.358;2023-06-10T03:15:24;100806.34;;;26.91
49785;BMP280;35679;38.732;-121.358;2023-06-10T03:18:14;100808.78;;;26.87
49785;BMP280;35679;38.732;-121.358;2023-06-10T03:21:04;100808.22;;;26.90
49785;BMP280;35679;38.732;-121.358;2023-06-10T03:23:54;100816.34;;;26.85
49785;BMP280;35679;38.732;-121.358;2023-06-10T03:26:44;100812.03;;;26.84
49785;BMP280;35679;38.732;-121.358;2023-06-10T03:29:35;100812.56;;;26.81
49785;BMP280;35679;38.732;-121.358;2023-06-10T03:32:26;100821.22;;;26.78
49785;BMP280;35679;38.732;-121.358;2023-06-10T03:35:15;100813.66;;;26.75
49785;BMP280;35679;38.732;-121.358;2023-06-10T03:38:06;100812.56;;;26.76
49785;BMP280;35679;38.732;-121.358;2023-06-10T03:40:55;100808.22;;;26.75
49785;BMP280;35679;38.732;-121.358;2023-06-10T03:43:46;100814.44;;;26.76
49785;BMP280;35679;38.732;-121.358;2023-06-10T03:46:36;100819.63;;;26.77
49785;BMP280;35679;38.732;-121.358;2023-06-10T03:49:26;100823.69;;;26.75
49785;BMP280;35679;38.732;-121.358;2023-06-10T03:52:21;100826.09;;;26.66
49785;BMP280;35679;38.732;-121.358;2023-06-10T03:55:11;100826.38;;;26.65
49785;BMP280;35679;38.732;-121.358;2023-06-10T03:58:04;100835.56;;;26.64
49785;BMP280;35679;38.732;-121.358;2023-06-10T04:00:54;100828.81;;;26.61
49785;BMP280;35679;38.732;-121.358;2023-06-10T04:03:52;100834.75;;;26.58
49785;BMP280;35679;38.732;-121.358;2023-06-10T04:06:43;100827.97;;;26.56
49785;BMP280;35679;38.732;-121.358;2023-06-10T04:09:36;100839.06;;;26.54
49785;BMP280;35679;38.732;-121.358;2023-06-10T04:12:26;100841.22;;;26.52
49785;BMP280;35679;38.732;-121.358;2023-06-10T04:15:16;100846.09;;;26.50
49785;BMP280;35679;38.732;-121.358;2023-06-10T04:18:06;100849.09;;;26.49
49785;BMP280;35679;38.732;-121.358;2023-06-10T04:20:56;100855.84;;;26.47
49785;BMP280;35679;38.732;-121.358;2023-06-10T04:23:46;100861.78;;;26.44
49785;BMP280;35679;38.732;-121.358;2023-06-10T04:26:36;100855.84;;;26.42
49785;BMP280;35679;38.732;-121.358;2023-06-10T04:29:26;100852.00;;;26.38
49785;BMP280;35679;38.732;-121.358;2023-06-10T04:32:15;100856.06;;;26.35
49785;BMP280;35679;38.732;-121.358;2023-06-10T04:35:05;100860.09;;;26.33
49785;BMP280;35679;38.732;-121.358;2023-06-10T04:37:56;100859.00;;;26.29
49785;BMP280;35679;38.732;-121.358;2023-06-10T04:40:46;100860.34;;;26.26
49785;BMP280;35679;38.732;-121.358;2023-06-10T04:43:36;100865.19;;;26.24
49785;BMP280;35679;38.732;-121.358;2023-06-10T04:46:26;100868.72;;;26.25
49785;BMP280;35679;38.732;-121.358;2023-06-10T04:49:16;100869.22;;;26.17
49785;BMP280;35679;38.732;-121.358;2023-06-10T04:52:06;100873.84;;;26.16
49785;BMP280;35679;38.732;-121.358;2023-06-10T04:54:59;100881.94;;;26.11
49785;BMP280;35679;38.732;-121.358;2023-06-10T04:57:48;100872.47;;;26.14
49785;BMP280;35679;38.732;-121.358;2023-06-10T05:00:39;100874.88;;;26.10
49785;BMP280;35679;38.732;-121.358;2023-06-10T05:03:29;100871.88;;;26.07
49785;BMP280;35679;38.732;-121.358;2023-06-10T05:06:19;100874.59;;;26.07
49785;BMP280;35679;38.732;-121.358;2023-06-10T05:09:09;100872.94;;;26.01
49785;BMP280;35679;38.732;-121.358;2023-06-10T05:11:59;100869.97;;;25.97
49785;BMP280;35679;38.732;-121.358;2023-06-10T05:14:48;100881.00;;;25.91
49785;BMP280;35679;38.732;-121.358;2023-06-10T05:17:38;100879.94;;;25.92
49785;BMP280;35679;38.732;-121.358;2023-06-10T05:20:27;100878.84;;;25.88
49785;BMP280;35679;38.732;-121.358;2023-06-10T05:23:17;100886.09;;;25.82
49785;BMP280;35679;38.732;-121.358;2023-06-10T05:26:07;100892.31;;;25.78
49785;BMP280;35679;38.732;-121.358;2023-06-10T05:28:56;100894.75;;;25.80
49785;BMP280;35679;38.732;-121.358;2023-06-10T05:31:46;100890.94;;;25.76
49785;BMP280;35679;38.732;-121.358;2023-06-10T05:34:35;100896.63;;;25.74
49785;BMP280;35679;38.732;-121.358;2023-06-10T05:37:25;100900.31;;;25.68
49785;BMP280;35679;38.732;-121.358;2023-06-10T05:40:14;100898.13;;;25.65
49785;BMP280;35679;38.732;-121.358;2023-06-10T05:43:03;100906.22;;;25.65
49785;BMP280;35679;38.732;-121.358;2023-06-10T05:45:53;100902.44;;;25.61
49785;BMP280;35679;38.732;-121.358;2023-06-10T05:48:42;100902.41;;;25.56
49785;BMP280;35679;38.732;-121.358;2023-06-10T05:51:32;100901.81;;;25.54
49785;BMP280;35679;38.732;-121.358;2023-06-10T05:54:21;100905.63;;;25.53
49785;BMP280;35679;38.732;-121.358;2023-06-10T05:57:10;100893.19;;;25.52
49785;BMP280;35679;38.732;-121.358;2023-06-10T06:00:00;100895.84;;;25.47
49785;BMP280;35679;38.732;-121.358;2023-06-10T06:02:58;100903.44;;;25.50
49785;BMP280;35679;38.732;-121.358;2023-06-10T06:05:48;100904.75;;;25.48
49785;BMP280;35679;38.732;-121.358;2023-06-10T06:08:37;100907.47;;;25.48
49785;BMP280;35679;38.732;-121.358;2023-06-10T06:11:27;100898.00;;;25.45
49785;BMP280;35679;38.732;-121.358;2023-06-10T06:14:16;100893.63;;;25.39
49785;BMP280;35679;38.732;-121.358;2023-06-10T06:17:06;100898.44;;;25.32
49785;BMP280;35679;38.732;-121.358;2023-06-10T06:19:56;100900.84;;;25.29
49785;BMP280;35679;38.732;-121.358;2023-06-10T06:22:46;100898.91;;;25.24
49785;BMP280;35679;38.732;-121.358;2023-06-10T06:25:35;100894.56;;;25.23
49785;BMP280;35679;38.732;-121.358;2023-06-10T06:28:26;100902.41;;;25.20
49785;BMP280;35679;38.732;-121.358;2023-06-10T06:31:18;100898.28;;;25.17
49785;BMP280;35679;38.732;-121.358;2023-06-10T06:34:07;100892.34;;;25.15
49785;BMP280;35679;38.732;-121.358;2023-06-10T06:36:57;100893.44;;;25.14
49785;BMP280;35679;38.732;-121.358;2023-06-10T06:39:48;100899.34;;;25.12
49785;BMP280;35679;38.732;-121.358;2023-06-10T06:42:37;100892.31;;;25.11
49785;BMP280;35679;38.732;-121.358;2023-06-10T06:45:36;100894.72;;;25.07
49785;BMP280;35679;38.732;-121.358;2023-06-10T06:48:25;100891.69;;;25.04
49785;BMP280;35679;38.732;-121.358;2023-06-10T06:51:15;100897.34;;;25.02
49785;BMP280;35679;38.732;-121.358;2023-06-10T06:54:04;100895.91;;;24.95
49785;BMP280;35679;38.732;-121.358;2023-06-10T06:56:54;100893.22;;;24.95
49785;BMP280;35679;38.732;-121.358;2023-06-10T06:59:44;100888.31;;;24.92
49785;BMP280;35679;38.732;-121.358;2023-06-10T07:02:33;100893.19;;;24.90
49785;BMP280;35679;38.732;-121.358;2023-06-10T07:05:24;100898.00;;;24.88
49785;BMP280;35679;38.732;-121.358;2023-06-10T07:08:16;100902.88;;;24.86
49785;BMP280;35679;38.732;-121.358;2023-06-10T07:11:06;100894.19;;;24.84
49785;BMP280;35679;38.732;-121.358;2023-06-10T07:13:55;100900.13;;;24.81
49785;BMP280;35679;38.732;-121.358;2023-06-10T07:16:45;100899.81;;;24.77
49785;BMP280;35679;38.732;-121.358;2023-06-10T07:19:35;100904.88;;;24.74
49785;BMP280;35679;38.732;-121.358;2023-06-10T07:22:25;100901.06;;;24.70
49785;BMP280;35679;38.732;-121.358;2023-06-10T07:25:14;100904.84;;;24.69
49785;BMP280;35679;38.732;-121.358;2023-06-10T07:28:04;100901.03;;;24.65
49785;BMP280;35679;38.732;-121.358;2023-06-10T07:30:54;100901.03;;;24.65
49785;BMP280;35679;38.732;-121.358;2023-06-10T07:33:43;100902.09;;;24.64
49785;BMP280;35679;38.732;-121.358;2023-06-10T07:36:32;100896.13;;;24.62
49785;BMP280;35679;38.732;-121.358;2023-06-10T07:39:22;100900.97;;;24.60
49785;BMP280;35679;38.732;-121.358;2023-06-10T07:42:11;100895.00;;;24.58
49785;BMP280;35679;38.732;-121.358;2023-06-10T07:45:01;100901.72;;;24.55
49785;BMP280;35679;38.732;-121.358;2023-06-10T07:47:51;100895.53;;;24.55
49785;BMP280;35679;38.732;-121.358;2023-06-10T07:50:41;100894.38;;;24.51
49785;BMP280;35679;38.732;-121.358;2023-06-10T07:53:30;100892.78;;;24.50
49785;BMP280;35679;38.732;-121.358;2023-06-10T07:56:19;100894.88;;;24.48
49785;BMP280;35679;38.732;-121.358;2023-06-10T07:59:10;100883.00;;;24.44
49785;BMP280;35679;38.732;-121.358;2023-06-10T08:01:59;100879.97;;;24.41
49785;BMP280;35679;38.732;-121.358;2023-06-10T08:04:49;100875.88;;;24.38
49785;BMP280;35679;38.732;-121.358;2023-06-10T08:07:42;100873.44;;;24.37
49785;BMP280;35679;38.732;-121.358;2023-06-10T08:10:32;100874.97;;;24.33
49785;BMP280;35679;38.732;-121.358;2023-06-10T08:13:22;100870.69;;;24.32
49785;BMP280;35679;38.732;-121.358;2023-06-10T08:16:11;100872.53;;;24.31
49785;BMP280;35679;38.732;-121.358;2023-06-10T08:19:01;100879.84;;;24.31
49785;BMP280;35679;38.732;-121.358;2023-06-10T08:21:50;100881.41;;;24.27
49785;BMP280;35679;38.732;-121.358;2023-06-10T08:24:40;100876.50;;;24.24
49785;BMP280;35679;38.732;-121.358;2023-06-10T08:27:29;100869.16;;;24.19
49785;BMP280;35679;38.732;-121.358;2023-06-10T08:30:19;100867.03;;;24.21
49785;BMP280;35679;38.732;-121.358;2023-06-10T08:33:08;100865.06;;;24.17
49785;BMP280;35679;38.732;-121.358;2023-06-10T08:35:58;100861.84;;;24.15
49785;BMP280;35679;38.732;-121.358;2023-06-10T08:38:47;100867.50;;;24.13
49785;BMP280;35679;38.732;-121.358;2023-06-10T08:41:42;100872.31;;;24.11
49785;BMP280;35679;38.732;-121.358;2023-06-10T08:44:32;100863.09;;;24.07
49785;BMP280;35679;38.732;-121.358;2023-06-10T08:47:29;100856.31;;;24.05
49785;BMP280;35679;38.732;-121.358;2023-06-10T08:50:21;100863.03;;;24.02
49785;BMP280;35679;38.732;-121.358;2023-06-10T08:53:16;100861.88;;;23.98
49785;BMP280;35679;38.732;-121.358;2023-06-10T08:56:06;100857.00;;;23.95
49785;BMP280;35679;38.732;-121.358;2023-06-10T08:58:57;100855.38;;;23.94
49785;BMP280;35679;38.732;-121.358;2023-06-10T09:01:47;100852.94;;;23.93
49785;BMP280;35679;38.732;-121.358;2023-06-10T09:04:37;100845.91;;;23.92
49785;BMP280;35679;38.732;-121.358;2023-06-10T09:07:27;100848.06;;;23.90
49785;BMP280;35679;38.732;-121.358;2023-06-10T09:10:17;100846.09;;;23.85
49785;BMP280;35679;38.732;-121.358;2023-06-10T09:13:07;100847.16;;;23.84
49785;BMP280;35679;38.732;-121.358;2023-06-10T09:15:56;100847.66;;;23.81
49785;BMP280;35679;38.732;-121.358;2023-06-10T09:18:51;100851.41;;;23.80
49785;BMP280;35679;38.732;-121.358;2023-06-10T09:21:43;100853.53;;;23.78
49785;BMP280;35679;38.732;-121.358;2023-06-10T09:24:33;100848.34;;;23.72
49785;BMP280;35679;38.732;-121.358;2023-06-10T09:27:23;100843.22;;;23.71
49785;BMP280;35679;38.732;-121.358;2023-06-10T09:30:24;100839.91;;;23.69
49785;BMP280;35679;38.732;-121.358;2023-06-10T09:33:16;100840.72;;;23.69
49785;BMP280;35679;38.732;-121.358;2023-06-10T09:36:07;100827.50;;;23.68
49785;BMP280;35679;38.732;-121.358;2023-06-10T09:38:57;100829.88;;;23.64
49785;BMP280;35679;38.732;-121.358;2023-06-10T09:41:46;100830.63;;;23.60
49785;BMP280;35679;38.732;-121.358;2023-06-10T09:44:36;100830.63;;;23.60
49785;BMP280;35679;38.732;-121.358;2023-06-10T09:47:28;100825.16;;;23.55
49785;BMP280;35679;38.732;-121.358;2023-06-10T09:50:18;100827.88;;;23.55
49785;BMP280;35679;38.732;-121.358;2023-06-10T09:53:08;100828.34;;;23.52
49785;BMP280;35679;38.732;-121.358;2023-06-10T09:55:57;100822.16;;;23.51
49785;BMP280;35679;38.732;-121.358;2023-06-10T09:58:47;100821.81;;;23.48
49785;BMP280;35679;38.732;-121.358;2023-06-10T10:01:36;100813.19;;;23.46
49785;BMP280;35679;38.732;-121.358;2023-06-10T10:04:26;100811.81;;;23.43
49785;BMP280;35679;38.732;-121.358;2023-06-10T10:07:17;100819.31;;;23.41
49785;BMP280;35679;38.732;-121.358;2023-06-10T10:10:07;100813.34;;;23.39
49785;BMP280;35679;38.732;-121.358;2023-06-10T10:12:58;100811.75;;;23.38
49785;BMP280;35679;38.732;-121.358;2023-06-10T10:15:48;100806.84;;;23.35
49785;BMP280;35679;38.732;-121.358;2023-06-10T10:18:40;100803.59;;;23.33
49785;BMP280;35679;38.732;-121.358;2023-06-10T10:21:38;100801.13;;;23.32
49785;BMP280;35679;38.732;-121.358;2023-06-10T10:24:55;100805.13;;;23.29
49785;BMP280;35679;38.732;-121.358;2023-06-10T10:27:56;100804.31;;;23.29
49785;BMP280;35679;38.732;-121.358;2023-06-10T10:30:52;100805.88;;;23.25
49785;BMP280;35679;38.732;-121.358;2023-06-10T10:33:55;100796.19;;;23.24
49785;BMP280;35679;38.732;-121.358;2023-06-10T10:36:48;100797.22;;;23.23
49785;BMP280;35679;38.732;-121.358;2023-06-10T10:39:39;100793.97;;;23.21
49785;BMP280;35679;38.732;-121.358;2023-06-10T10:42:29;100796.91;;;23.19
49785;BMP280;35679;38.732;-121.358;2023-06-10T10:45:21;100798.63;;;23.25
49785;BMP280;35679;38.732;-121.358;2023-06-10T10:48:11;100801.78;;;23.39
49785;BMP280;35679;38.732;-121.358;2023-06-10T10:51:01;100797.88;;;23.30
49785;BMP280;35679;38.732;-121.358;2023-06-10T10:54:13;100792.19;;;23.26
49785;BMP280;35679;38.732;-121.358;2023-06-10T10:57:17;100789.97;;;23.23
49785;BMP280;35679;38.732;-121.358;2023-06-10T11:00:07;100791.84;;;23.23
49785;BMP280;35679;38.732;-121.358;2023-06-10T11:03:06;100784.03;;;23.21
49785;BMP280;35679;38.732;-121.358;2023-06-10T11:05:59;100785.59;;;23.17
49785;BMP280;35679;38.732;-121.358;2023-06-10T11:08:49;100791.13;;;23.11
49785;BMP280;35679;38.732;-121.358;2023-06-10T11:11:49;100792.44;;;23.09
49785;BMP280;35679;38.732;-121.358;2023-06-10T11:14:54;100791.03;;;23.06
49785;BMP280;35679;38.732;-121.358;2023-06-10T11:18:45;100788.84;;;23.03
49785;BMP280;35679;38.732;-121.358;2023-06-10T11:21:17;100781.03;;;23.02
49785;BMP280;35679;38.732;-121.358;2023-06-10T11:24:13;100785.34;;;23.03
49785;BMP280;35679;38.732;-121.358;2023-06-10T11:27:19;100784.78;;;23.01
49785;BMP280;35679;38.732;-121.358;2023-06-10T11:30:19;100776.34;;;22.97
49785;BMP280;35679;38.732;-121.358;2023-06-10T11:33:09;100767.69;;;22.95
49785;BMP280;35679;38.732;-121.358;2023-06-10T11:36:07;100775.75;;;22.95
49785;BMP280;35679;38.732;-121.358;2023-06-10T11:38:58;100780.94;;;22.97
49785;BMP280;35679;38.732;-121.358;2023-06-10T11:41:48;100785.41;;;22.91
49785;BMP280;35679;38.732;-121.358;2023-06-10T11:44:50;100785.66;;;22.90
49785;BMP280;35679;38.732;-121.358;2023-06-10T11:47:40;100787.75;;;22.88
49785;BMP280;35679;38.732;-121.358;2023-06-10T11:50:44;100790.44;;;22.88
49785;BMP280;35679;38.732;-121.358;2023-06-10T11:53:34;100785.81;;;22.83
49785;BMP280;35679;38.732;-121.358;2023-06-10T11:56:25;100776.84;;;22.78
49785;BMP280;35679;38.732;-121.358;2023-06-10T11:59:15;100783.84;;;22.79
49785;BMP280;35679;38.732;-121.358;2023-06-10T12:02:05;100776.03;;;22.77
49785;BMP280;35679;38.732;-121.358;2023-06-10T12:05:10;100781.06;;;22.74
49785;BMP280;35679;38.732;-121.358;2023-06-10T12:08:12;100785.81;;;22.83
49785;BMP280;35679;38.732;-121.358;2023-06-10T12:11:01;100788.44;;;22.78
49785;BMP280;35679;38.732;-121.358;2023-06-10T12:13:51;100779.53;;;22.78
49785;BMP280;35679;38.732;-121.358;2023-06-10T12:16:40;100781.16;;;22.79
49785;BMP280;35679;38.732;-121.358;2023-06-10T12:19:40;100785.97;;;22.77
49785;BMP280;35679;38.732;-121.358;2023-06-10T12:22:39;100786.72;;;22.72
49785;BMP280;35679;38.732;-121.358;2023-06-10T12:25:29;100771.38;;;22.73
49785;BMP280;35679;38.732;-121.358;2023-06-10T12:28:23;100772.44;;;22.72
49785;BMP280;35679;38.732;-121.358;2023-06-10T12:31:13;100773.25;;;22.72
49785;BMP280;35679;38.732;-121.358;2023-06-10T12:34:09;100774.06;;;22.73
49785;BMP280;35679;38.732;-121.358;2023-06-10T12:36:59;100775.84;;;22.51
49785;BMP280;35679;38.732;-121.358;2023-06-10T12:39:51;100786.25;;;22.20
49785;BMP280;35679;38.732;-121.358;2023-06-10T12:42:45;100773.09;;;22.07
49785;BMP280;35679;38.732;-121.358;2023-06-10T12:45:38;100773.25;;;22.00
49785;BMP280;35679;38.732;-121.358;2023-06-10T12:48:36;100785.44;;;21.91
49785;BMP280;35679;38.732;-121.358;2023-06-10T12:51:38;100797.72;;;21.87
49785;BMP280;35679;38.732;-121.358;2023-06-10T12:54:27;100791.91;;;21.79
49785;BMP280;35679;38.732;-121.358;2023-06-10T12:57:17;100806.28;;;21.73
49785;BMP280;35679;38.732;-121.358;2023-06-10T13:00:07;100799.16;;;21.67
49785;BMP280;35679;38.732;-121.358;2023-06-10T13:03:00;100794.59;;;21.79
49785;BMP280;35679;38.732;-121.358;2023-06-10T13:05:54;100789.78;;;21.81
49785;BMP280;35679;38.732;-121.358;2023-06-10T13:08:44;100785.38;;;21.75
49785;BMP280;35679;38.732;-121.358;2023-06-10T13:11:34;100782.44;;;21.77
49785;BMP280;35679;38.732;-121.358;2023-06-10T13:14:23;100793.78;;;21.67
49785;BMP280;35679;38.732;-121.358;2023-06-10T13:17:13;100791.69;;;21.58
49785;BMP280;35679;38.732;-121.358;2023-06-10T13:20:04;100784.69;;;21.68
49785;BMP280;35679;38.732;-121.358;2023-06-10T13:22:54;100791.25;;;21.61
49785;BMP280;35679;38.732;-121.358;2023-06-10T13:25:43;100791.59;;;21.53
49785;BMP280;35679;38.732;-121.358;2023-06-10T13:28:33;100803.50;;;21.57
49785;BMP280;35679;38.732;-121.358;2023-06-10T13:31:23;100801.50;;;21.41
49785;BMP280;35679;38.732;-121.358;2023-06-10T13:34:12;100803.03;;;21.25
49785;BMP280;35679;38.732;-121.358;2023-06-10T13:37:02;100803.84;;;21.03
49785;BMP280;35679;38.732;-121.358;2023-06-10T13:39:53;100803.84;;;21.03
49785;BMP280;35679;38.732;-121.358;2023-06-10T13:42:43;100802.88;;;20.98
49785;BMP280;35679;38.732;-121.358;2023-06-10T13:45:33;100812.09;;;20.79
49785;BMP280;35679;38.732;-121.358;2023-06-10T13:48:23;100809.88;;;20.87
49785;BMP280;35679;38.732;-121.358;2023-06-10T13:51:12;100813.16;;;21.01
49785;BMP280;35679;38.732;-121.358;2023-06-10T13:54:01;100815.16;;;21.05
49785;BMP280;35679;38.732;-121.358;2023-06-10T13:56:51;100794.03;;;21.08
49785;BMP280;35679;38.732;-121.358;2023-06-10T13:59:40;100804.31;;;21.11
49785;BMP280;35679;38.732;-121.358;2023-06-10T14:02:29;100805.97;;;21.12
49785;BMP280;35679;38.732;-121.358;2023-06-10T14:05:19;100806.53;;;21.14
49785;BMP280;35679;38.732;-121.358;2023-06-10T14:08:08;100802.00;;;21.15
49785;BMP280;35679;38.732;-121.358;2023-06-10T14:10:58;100807.69;;;21.18
49785;BMP280;35679;38.732;-121.358;2023-06-10T14:13:47;100801.63;;;21.23
49785;BMP280;35679;38.732;-121.358;2023-06-10T14:16:36;100805.34;;;21.22
49785;BMP280;35679;38.732;-121.358;2023-06-10T14:19:30;100808.28;;;21.20
49785;BMP280;35679;38.732;-121.358;2023-06-10T14:22:19;100811.31;;;21.24
49785;BMP280;35679;38.732;-121.358;2023-06-10T14:25:08;100811.91;;;21.26
49785;BMP280;35679;38.732;-121.358;2023-06-10T14:28:00;100818.88;;;21.27
49785;BMP280;35679;38.732;-121.358;2023-06-10T14:30:50;100818.69;;;21.28
49785;BMP280;35679;38.732;-121.358;2023-06-10T14:33:43;100822.97;;;21.29
49785;BMP280;35679;38.732;-121.358;2023-06-10T14:36:33;100824.63;;;21.30
49785;BMP280;35679;38.732;-121.358;2023-06-10T14:39:23;100825.78;;;21.34
49785;BMP280;35679;38.732;-121.358;2023-06-10T14:42:13;100827.41;;;21.35
49785;BMP280;35679;38.732;-121.358;2023-06-10T14:45:03;100829.84;;;21.37
49785;BMP280;35679;38.732;-121.358;2023-06-10T14:47:53;100820.75;;;21.38
49785;BMP280;35679;38.732;-121.358;2023-06-10T14:50:43;100820.53;;;21.39
49785;BMP280;35679;38.732;-121.358;2023-06-10T14:53:35;100824.28;;;21.38
49785;BMP280;35679;38.732;-121.358;2023-06-10T14:56:24;100833.72;;;21.41
49785;BMP280;35679;38.732;-121.358;2023-06-10T14:59:14;100838.63;;;21.44
49785;BMP280;35679;38.732;-121.358;2023-06-10T15:02:04;100835.34;;;21.42
49785;BMP280;35679;38.732;-121.358;2023-06-10T15:04:54;100840.94;;;21.40
49785;BMP280;35679;38.732;-121.358;2023-06-10T15:07:43;100843.38;;;21.42
49785;BMP280;35679;38.732;-121.358;2023-06-10T15:10:33;100846.31;;;21.40
49785;BMP280;35679;38.732;-121.358;2023-06-10T15:13:22;100849.13;;;21.45
49785;BMP280;35679;38.732;-121.358;2023-06-10T15:16:12;100853.19;;;21.48
49785;BMP280;35679;38.732;-121.358;2023-06-10T15:19:03;100856.47;;;21.50
49785;BMP280;35679;38.732;-121.358;2023-06-10T15:21:55;100855.06;;;21.47
49785;BMP280;35679;38.732;-121.358;2023-06-10T15:24:45;100861.84;;;21.50
49785;BMP280;35679;38.732;-121.358;2023-06-10T15:27:34;100857.28;;;21.50
49785;BMP280;35679;38.732;-121.358;2023-06-10T15:30:23;100865.97;;;21.52
49785;BMP280;35679;38.732;-121.358;2023-06-10T15:33:13;100852.53;;;21.52
49785;BMP280;35679;38.732;-121.358;2023-06-10T15:36:02;100859.56;;;21.53
49785;BMP280;35679;38.732;-121.358;2023-06-10T15:38:54;100859.56;;;21.53